Cave Creek, Arizona
Current Conditions -  °F | °C
As of 6:53 AM on Thursday 30 Oct 2014 (Local Time) from KDVT Reporting Station
Clear Clear  
Wind Chill: 66°   Ceiling: Unl
Heat Index: 66°   Visibility: 10mi
Dew Point: 38°   Wind: 7mph
Humidity: 36%   Direction: 30°NNE
Pressure: 30.01"   Gusts: NA
Location:  33.83°N, 111.97°W
Report Text: KDVT 301353Z 03006KT 10SM CLR 19/03 A3001 RMK AO2 SLP144 T01890033
Loading
Personal Weather Stations






























Interactive Weather Map
Tropical Storm Tracking
New forecast layout! Learn more

10-Day Weather Forecast

Advertisements
Track Severe Weather on mobile